sensor_id;sensor_type;location;lat;lon;timestamp;P1;durP1;ratioP1;P2;durP2;ratioP2
59294;SDS011;45067;44.654;20.200;2023-12-20T05:34:37;107.95;;;61.25;;
59294;SDS011;45067;44.654;20.200;2023-12-20T06:01:54;91.18;;;51.25;;
59294;SDS011;45067;44.654;20.200;2023-12-20T06:07:22;85.90;;;48.45;;
59294;SDS011;45067;44.654;20.200;2023-12-20T06:18:16;77.65;;;46.17;;
59294;SDS011;45067;44.654;20.200;2023-12-20T06:34:56;84.63;;;48.63;;
59294;SDS011;45067;44.654;20.200;2023-12-20T06:37:47;83.30;;;47.38;;
59294;SDS011;45067;44.654;20.200;2023-12-20T06:40:36;110.68;;;54.78;;
59294;SDS011;45067;44.654;20.200;2023-12-20T07:33:49;78.95;;;46.92;;
59294;SDS011;45067;44.654;20.200;2023-12-20T07:36:52;82.63;;;47.88;;
59294;SDS011;45067;44.654;20.200;2023-12-20T07:39:56;90.25;;;54.28;;
59294;SDS011;45067;44.654;20.200;2023-12-20T07:56:37;112.82;;;61.88;;
59294;SDS011;45067;44.654;20.200;2023-12-20T08:23:14;115.38;;;63.80;;
59294;SDS011;45067;44.654;20.200;2023-12-20T09:15:51;99.05;;;59.45;;
59294;SDS011;45067;44.654;20.200;2023-12-20T09:18:48;97.60;;;57.75;;
59294;SDS011;45067;44.654;20.200;2023-12-20T09:24:17;102.78;;;57.70;;
59294;SDS011;45067;44.654;20.200;2023-12-20T09:39:28;95.65;;;57.70;;
59294;SDS011;45067;44.654;20.200;2023-12-20T09:53:37;109.85;;;66.32;;
59294;SDS011;45067;44.654;20.200;2023-12-20T09:56:32;109.60;;;67.10;;
59294;SDS011;45067;44.654;20.200;2023-12-20T09:59:36;110.90;;;65.78;;
59294;SDS011;45067;44.654;20.200;2023-12-20T10:02:13;106.65;;;64.80;;
59294;SDS011;45067;44.654;20.200;2023-12-20T10:05:15;102.20;;;64.72;;
59294;SDS011;45067;44.654;20.200;2023-12-20T10:08:26;128.27;;;74.75;;
59294;SDS011;45067;44.654;20.200;2023-12-20T10:11:22;128.82;;;76.45;;
59294;SDS011;45067;44.654;20.200;2023-12-20T10:14:03;130.43;;;80.60;;
59294;SDS011;45067;44.654;20.200;2023-12-20T10:16:36;116.65;;;72.78;;
59294;SDS011;45067;44.654;20.200;2023-12-20T10:19:05;118.25;;;72.82;;
59294;SDS011;45067;44.654;20.200;2023-12-20T10:24:30;129.80;;;77.30;;
59294;SDS011;45067;44.654;20.200;2023-12-20T10:27:35;130.48;;;79.97;;
59294;SDS011;45067;44.654;20.200;2023-12-20T10:30:02;143.20;;;86.50;;
59294;SDS011;45067;44.654;20.200;2023-12-20T10:32:37;145.65;;;87.57;;
59294;SDS011;45067;44.654;20.200;2023-12-20T10:35:04;151.32;;;88.53;;
59294;SDS011;45067;44.654;20.200;2023-12-20T10:37:30;129.75;;;80.72;;
59294;SDS011;45067;44.654;20.200;2023-12-20T10:39:56;120.75;;;74.35;;
59294;SDS011;45067;44.654;20.200;2023-12-20T10:42:26;117.40;;;75.25;;
59294;SDS011;45067;44.654;20.200;2023-12-20T10:44:52;87.32;;;61.13;;
59294;SDS011;45067;44.654;20.200;2023-12-20T10:47:19;80.45;;;56.50;;
59294;SDS011;45067;44.654;20.200;2023-12-20T10:49:45;77.43;;;55.60;;
59294;SDS011;45067;44.654;20.200;2023-12-20T10:52:12;73.93;;;56.00;;
59294;SDS011;45067;44.654;20.200;2023-12-20T10:54:39;72.05;;;55.40;;
59294;SDS011;45067;44.654;20.200;2023-12-20T10:57:06;69.22;;;52.95;;
59294;SDS011;45067;44.654;20.200;2023-12-20T10:59:41;70.57;;;54.00;;
59294;SDS011;45067;44.654;20.200;2023-12-20T11:02:08;72.75;;;56.30;;
59294;SDS011;45067;44.654;20.200;2023-12-20T11:04:37;70.13;;;55.38;;
59294;SDS011;45067;44.654;20.200;2023-12-20T11:07:10;75.45;;;55.83;;
59294;SDS011;45067;44.654;20.200;2023-12-20T11:09:43;74.30;;;55.63;;
59294;SDS011;45067;44.654;20.200;2023-12-20T11:15:06;77.00;;;53.90;;
59294;SDS011;45067;44.654;20.200;2023-12-20T11:17:33;77.38;;;54.28;;
59294;SDS011;45067;44.654;20.200;2023-12-20T11:22:52;108.47;;;72.65;;
59294;SDS011;45067;44.654;20.200;2023-12-20T11:25:18;110.13;;;70.10;;
59294;SDS011;45067;44.654;20.200;2023-12-20T11:27:44;102.28;;;66.63;;
59294;SDS011;45067;44.654;20.200;2023-12-20T11:30:40;103.88;;;71.32;;
59294;SDS011;45067;44.654;20.200;2023-12-20T11:33:07;106.50;;;72.68;;
59294;SDS011;45067;44.654;20.200;2023-12-20T11:35:33;107.90;;;70.72;;
59294;SDS011;45067;44.654;20.200;2023-12-20T11:38:01;81.40;;;58.90;;
59294;SDS011;45067;44.654;20.200;2023-12-20T11:40:27;74.13;;;55.65;;
59294;SDS011;45067;44.654;20.200;2023-12-20T11:42:54;75.07;;;57.20;;
59294;SDS011;45067;44.654;20.200;2023-12-20T11:45:20;75.82;;;57.78;;
59294;SDS011;45067;44.654;20.200;2023-12-20T11:47:47;69.88;;;57.17;;
59294;SDS011;45067;44.654;20.200;2023-12-20T11:50:18;71.63;;;55.57;;
59294;SDS011;45067;44.654;20.200;2023-12-20T11:52:45;67.95;;;55.53;;
59294;SDS011;45067;44.654;20.200;2023-12-20T11:55:11;67.78;;;56.72;;
59294;SDS011;45067;44.654;20.200;2023-12-20T11:57:37;71.18;;;58.20;;
59294;SDS011;45067;44.654;20.200;2023-12-20T12:00:04;80.28;;;60.95;;
59294;SDS011;45067;44.654;20.200;2023-12-20T12:02:31;84.55;;;60.88;;
59294;SDS011;45067;44.654;20.200;2023-12-20T12:04:58;80.90;;;61.53;;
59294;SDS011;45067;44.654;20.200;2023-12-20T12:07:25;82.97;;;64.10;;
59294;SDS011;45067;44.654;20.200;2023-12-20T12:09:51;88.65;;;65.60;;
59294;SDS011;45067;44.654;20.200;2023-12-20T12:12:17;83.93;;;64.45;;
59294;SDS011;45067;44.654;20.200;2023-12-20T12:14:44;85.68;;;65.35;;
59294;SDS011;45067;44.654;20.200;2023-12-20T12:17:11;86.28;;;64.60;;
59294;SDS011;45067;44.654;20.200;2023-12-20T12:19:38;87.07;;;66.30;;
59294;SDS011;45067;44.654;20.200;2023-12-20T12:22:05;85.85;;;63.67;;
59294;SDS011;45067;44.654;20.200;2023-12-20T12:24:33;82.43;;;61.20;;
59294;SDS011;45067;44.654;20.200;2023-12-20T12:26:59;76.07;;;53.47;;
59294;SDS011;45067;44.654;20.200;2023-12-20T12:29:25;75.20;;;53.90;;
59294;SDS011;45067;44.654;20.200;2023-12-20T12:31:51;78.13;;;57.78;;
59294;SDS011;45067;44.654;20.200;2023-12-20T12:34:17;77.03;;;57.60;;
59294;SDS011;45067;44.654;20.200;2023-12-20T12:36:44;84.60;;;60.03;;
59294;SDS011;45067;44.654;20.200;2023-12-20T12:39:17;76.93;;;57.10;;
59294;SDS011;45067;44.654;20.200;2023-12-20T12:41:43;78.95;;;58.40;;
59294;SDS011;45067;44.654;20.200;2023-12-20T12:44:09;74.47;;;53.75;;
59294;SDS011;45067;44.654;20.200;2023-12-20T12:46:35;73.78;;;54.00;;
59294;SDS011;45067;44.654;20.200;2023-12-20T12:49:02;71.38;;;48.45;;
59294;SDS011;45067;44.654;20.200;2023-12-20T12:51:28;62.35;;;45.70;;
59294;SDS011;45067;44.654;20.200;2023-12-20T12:53:54;65.25;;;45.60;;
59294;SDS011;45067;44.654;20.200;2023-12-20T12:56:20;62.22;;;45.85;;
59294;SDS011;45067;44.654;20.200;2023-12-20T12:58:47;63.85;;;46.95;;
59294;SDS011;45067;44.654;20.200;2023-12-20T13:01:13;69.93;;;49.05;;
59294;SDS011;45067;44.654;20.200;2023-12-20T13:03:39;67.15;;;47.05;;
59294;SDS011;45067;44.654;20.200;2023-12-20T13:06:05;71.32;;;49.47;;
59294;SDS011;45067;44.654;20.200;2023-12-20T13:08:33;68.22;;;49.40;;
59294;SDS011;45067;44.654;20.200;2023-12-20T13:11:00;75.53;;;51.00;;
59294;SDS011;45067;44.654;20.200;2023-12-20T13:13:29;69.05;;;49.35;;
59294;SDS011;45067;44.654;20.200;2023-12-20T13:15:55;61.35;;;48.60;;
59294;SDS011;45067;44.654;20.200;2023-12-20T13:18:22;62.42;;;47.55;;
59294;SDS011;45067;44.654;20.200;2023-12-20T13:20:48;62.17;;;49.25;;
59294;SDS011;45067;44.654;20.200;2023-12-20T13:23:14;65.25;;;50.75;;
59294;SDS011;45067;44.654;20.200;2023-12-20T13:25:41;66.07;;;51.00;;
59294;SDS011;45067;44.654;20.200;2023-12-20T13:28:07;70.18;;;56.13;;
59294;SDS011;45067;44.654;20.200;2023-12-20T13:30:33;74.03;;;59.50;;
59294;SDS011;45067;44.654;20.200;2023-12-20T13:33:00;70.95;;;58.05;;
59294;SDS011;45067;44.654;20.200;2023-12-20T13:35:26;78.00;;;64.32;;
59294;SDS011;45067;44.654;20.200;2023-12-20T13:37:52;76.90;;;63.65;;
59294;SDS011;45067;44.654;20.200;2023-12-20T13:40:18;80.70;;;62.20;;
59294;SDS011;45067;44.654;20.200;2023-12-20T13:42:45;82.80;;;65.05;;
59294;SDS011;45067;44.654;20.200;2023-12-20T13:45:11;85.15;;;69.55;;
59294;SDS011;45067;44.654;20.200;2023-12-20T13:47:37;90.43;;;70.95;;
59294;SDS011;45067;44.654;20.200;2023-12-20T13:50:03;93.13;;;73.40;;
59294;SDS011;45067;44.654;20.200;2023-12-20T13:52:30;92.40;;;71.97;;
59294;SDS011;45067;44.654;20.200;2023-12-20T13:54:56;90.95;;;68.88;;
59294;SDS011;45067;44.654;20.200;2023-12-20T13:57:22;98.20;;;74.47;;
59294;SDS011;45067;44.654;20.200;2023-12-20T13:59:48;96.93;;;74.22;;
59294;SDS011;45067;44.654;20.200;2023-12-20T14:02:14;99.50;;;75.45;;
59294;SDS011;45067;44.654;20.200;2023-12-20T14:04:41;102.60;;;76.00;;
59294;SDS011;45067;44.654;20.200;2023-12-20T14:07:07;105.97;;;78.53;;
59294;SDS011;45067;44.654;20.200;2023-12-20T14:09:34;110.03;;;75.97;;
59294;SDS011;45067;44.654;20.200;2023-12-20T14:12:00;102.80;;;73.82;;
59294;SDS011;45067;44.654;20.200;2023-12-20T14:14:27;108.15;;;74.43;;
59294;SDS011;45067;44.654;20.200;2023-12-20T14:16:53;119.53;;;79.00;;
59294;SDS011;45067;44.654;20.200;2023-12-20T14:19:19;112.10;;;78.10;;
59294;SDS011;45067;44.654;20.200;2023-12-20T14:21:45;111.20;;;77.55;;
59294;SDS011;45067;44.654;20.200;2023-12-20T14:24:14;111.82;;;81.80;;
59294;SDS011;45067;44.654;20.200;2023-12-20T14:26:41;116.88;;;82.40;;
59294;SDS011;45067;44.654;20.200;2023-12-20T14:29:07;111.60;;;79.90;;
59294;SDS011;45067;44.654;20.200;2023-12-20T14:31:34;113.30;;;78.93;;
59294;SDS011;45067;44.654;20.200;2023-12-20T14:34:00;113.63;;;78.97;;
59294;SDS011;45067;44.654;20.200;2023-12-20T14:36:29;122.43;;;82.38;;
59294;SDS011;45067;44.654;20.200;2023-12-20T14:38:57;120.90;;;80.25;;
59294;SDS011;45067;44.654;20.200;2023-12-20T14:41:24;117.85;;;79.40;;
59294;SDS011;45067;44.654;20.200;2023-12-20T14:43:50;111.80;;;79.05;;
59294;SDS011;45067;44.654;20.200;2023-12-20T14:46:18;115.10;;;82.05;;
59294;SDS011;45067;44.654;20.200;2023-12-20T14:48:44;118.28;;;82.57;;
59294;SDS011;45067;44.654;20.200;2023-12-20T14:51:10;119.10;;;83.13;;
59294;SDS011;45067;44.654;20.200;2023-12-20T14:53:38;115.70;;;79.82;;
59294;SDS011;45067;44.654;20.200;2023-12-20T14:56:04;118.22;;;80.35;;
59294;SDS011;45067;44.654;20.200;2023-12-20T14:58:31;115.57;;;81.60;;
59294;SDS011;45067;44.654;20.200;2023-12-20T15:00:57;117.13;;;83.18;;
59294;SDS011;45067;44.654;20.200;2023-12-20T15:03:23;126.60;;;83.95;;
59294;SDS011;45067;44.654;20.200;2023-12-20T15:05:49;121.72;;;84.05;;
59294;SDS011;45067;44.654;20.200;2023-12-20T15:08:15;122.72;;;85.90;;
59294;SDS011;45067;44.654;20.200;2023-12-20T15:10:41;124.25;;;88.40;;
59294;SDS011;45067;44.654;20.200;2023-12-20T15:13:08;122.07;;;85.70;;
59294;SDS011;45067;44.654;20.200;2023-12-20T15:15:34;122.72;;;86.95;;
59294;SDS011;45067;44.654;20.200;2023-12-20T15:18:00;128.93;;;85.07;;
59294;SDS011;45067;44.654;20.200;2023-12-20T15:20:29;121.43;;;82.05;;
59294;SDS011;45067;44.654;20.200;2023-12-20T15:22:58;123.78;;;87.82;;
59294;SDS011;45067;44.654;20.200;2023-12-20T15:25:29;123.68;;;88.15;;
59294;SDS011;45067;44.654;20.200;2023-12-20T15:27:56;122.78;;;84.95;;
59294;SDS011;45067;44.654;20.200;2023-12-20T15:30:22;128.55;;;87.40;;
59294;SDS011;45067;44.654;20.200;2023-12-20T15:32:51;126.80;;;87.68;;
59294;SDS011;45067;44.654;20.200;2023-12-20T15:35:21;132.02;;;90.63;;
59294;SDS011;45067;44.654;20.200;2023-12-20T15:37:48;128.27;;;89.13;;
59294;SDS011;45067;44.654;20.200;2023-12-20T15:40:16;129.93;;;87.78;;
59294;SDS011;45067;44.654;20.200;2023-12-20T15:42:42;125.90;;;89.20;;
59294;SDS011;45067;44.654;20.200;2023-12-20T15:45:13;124.93;;;87.32;;
59294;SDS011;45067;44.654;20.200;2023-12-20T15:50:24;133.35;;;90.90;;
59294;SDS011;45067;44.654;20.200;2023-12-20T15:52:54;130.50;;;88.28;;
59294;SDS011;45067;44.654;20.200;2023-12-20T15:55:30;134.60;;;92.38;;
59294;SDS011;45067;44.654;20.200;2023-12-20T15:57:56;129.27;;;90.07;;
59294;SDS011;45067;44.654;20.200;2023-12-20T16:00:22;128.20;;;91.43;;
59294;SDS011;45067;44.654;20.200;2023-12-20T16:05:17;130.00;;;89.18;;
59294;SDS011;45067;44.654;20.200;2023-12-20T16:07:43;130.38;;;88.88;;
59294;SDS011;45067;44.654;20.200;2023-12-20T16:10:21;127.65;;;88.80;;
59294;SDS011;45067;44.654;20.200;2023-12-20T16:13:12;128.55;;;87.78;;
59294;SDS011;45067;44.654;20.200;2023-12-20T16:15:45;130.77;;;86.53;;
59294;SDS011;45067;44.654;20.200;2023-12-20T16:18:11;122.20;;;85.57;;
59294;SDS011;45067;44.654;20.200;2023-12-20T16:20:43;122.68;;;84.50;;
59294;SDS011;45067;44.654;20.200;2023-12-20T16:23:31;127.13;;;85.72;;
59294;SDS011;45067;44.654;20.200;2023-12-20T16:26:08;131.18;;;87.97;;
59294;SDS011;45067;44.654;20.200;2023-12-20T16:31:54;114.70;;;77.57;;
59294;SDS011;45067;44.654;20.200;2023-12-20T16:34:47;120.80;;;79.97;;
59294;SDS011;45067;44.654;20.200;2023-12-20T16:37:16;125.55;;;83.25;;
59294;SDS011;45067;44.654;20.200;2023-12-20T16:43:00;127.43;;;85.40;;
59294;SDS011;45067;44.654;20.200;2023-12-20T16:45:42;129.38;;;86.45;;
59294;SDS011;45067;44.654;20.200;2023-12-20T16:48:33;156.27;;;97.15;;
59294;SDS011;45067;44.654;20.200;2023-12-20T16:51:35;143.38;;;92.00;;
59294;SDS011;45067;44.654;20.200;2023-12-20T16:57:20;138.75;;;88.40;;
59294;SDS011;45067;44.654;20.200;2023-12-20T17:00:25;134.98;;;85.55;;
59294;SDS011;45067;44.654;20.200;2023-12-20T17:13:05;115.13;;;71.93;;
59294;SDS011;45067;44.654;20.200;2023-12-20T17:15:47;116.70;;;74.32;;
59294;SDS011;45067;44.654;20.200;2023-12-20T17:18:17;108.53;;;68.60;;
59294;SDS011;45067;44.654;20.200;2023-12-20T17:20:56;107.97;;;69.55;;
59294;SDS011;45067;44.654;20.200;2023-12-20T17:23:27;106.75;;;68.20;;
59294;SDS011;45067;44.654;20.200;2023-12-20T17:26:19;110.30;;;69.57;;
59294;SDS011;45067;44.654;20.200;2023-12-20T17:29:06;118.53;;;72.30;;
59294;SDS011;45067;44.654;20.200;2023-12-20T17:32:03;106.68;;;66.72;;
59294;SDS011;45067;44.654;20.200;2023-12-20T17:34:33;107.85;;;68.88;;
59294;SDS011;45067;44.654;20.200;2023-12-20T17:37:14;110.88;;;67.20;;
59294;SDS011;45067;44.654;20.200;2023-12-20T17:39:44;106.35;;;63.55;;
59294;SDS011;45067;44.654;20.200;2023-12-20T17:42:33;102.80;;;63.83;;
59294;SDS011;45067;44.654;20.200;2023-12-20T18:03:21;96.70;;;62.67;;
59294;SDS011;45067;44.654;20.200;2023-12-20T18:18:44;115.70;;;68.47;;
59294;SDS011;45067;44.654;20.200;2023-12-20T18:42:02;87.15;;;53.30;;
59294;SDS011;45067;44.654;20.200;2023-12-20T19:06:54;80.43;;;49.83;;
59294;SDS011;45067;44.654;20.200;2023-12-20T19:16:01;80.68;;;46.83;;
59294;SDS011;45067;44.654;20.200;2023-12-20T19:21:21;80.47;;;47.70;;
59294;SDS011;45067;44.654;20.200;2023-12-20T19:24:01;79.43;;;47.70;;
59294;SDS011;45067;44.654;20.200;2023-12-20T19:26:36;86.03;;;48.72;;
59294;SDS011;45067;44.654;20.200;2023-12-20T19:29:13;76.78;;;46.35;;
59294;SDS011;45067;44.654;20.200;2023-12-20T19:38:11;81.10;;;49.17;;
59294;SDS011;45067;44.654;20.200;2023-12-20T19:52:16;90.18;;;53.45;;
59294;SDS011;45067;44.654;20.200;2023-12-20T19:55:27;96.25;;;54.42;;
59294;SDS011;45067;44.654;20.200;2023-12-20T20:00:33;107.18;;;59.55;;
59294;SDS011;45067;44.654;20.200;2023-12-20T20:03:20;98.13;;;54.20;;
59294;SDS011;45067;44.654;20.200;2023-12-20T20:05:50;93.55;;;54.00;;
59294;SDS011;45067;44.654;20.200;2023-12-20T20:08:27;90.75;;;50.67;;
59294;SDS011;45067;44.654;20.200;2023-12-20T21:56:40;65.68;;;38.50;;
59294;SDS011;45067;44.654;20.200;2023-12-20T22:49:14;72.90;;;39.58;;
59294;SDS011;45067;44.654;20.200;2023-12-20T22:54:55;62.20;;;34.05;;
59294;SDS011;45067;44.654;20.200;2023-12-20T23:17:48;54.88;;;31.85;;
59294;SDS011;45067;44.654;20.200;2023-12-20T23:20:48;51.90;;;29.40;;
59294;SDS011;45067;44.654;20.200;2023-12-20T23:29:00;53.42;;;29.80;;
